sensor_id;sensor_type;location;lat;lon;timestamp;temperature;humidity
41220;DHT22;26951;47.338;9.196;2023-04-28T00:00:18;9.70;64.60
41220;DHT22;26951;47.338;9.196;2023-04-28T00:03:03;9.80;64.10
41220;DHT22;26951;47.338;9.196;2023-04-28T00:05:47;9.80;63.90
41220;DHT22;26951;47.338;9.196;2023-04-28T00:08:32;9.80;64.00
41220;DHT22;26951;47.338;9.196;2023-04-28T00:11:16;9.80;63.90
41220;DHT22;26951;47.338;9.196;2023-04-28T00:14:00;9.80;64.20
41220;DHT22;26951;47.338;9.196;2023-04-28T00:16:45;9.70;65.00
41220;DHT22;26951;47.338;9.196;2023-04-28T00:19:29;9.70;65.00
41220;DHT22;26951;47.338;9.196;2023-04-28T00:22:13;9.70;64.80
41220;DHT22;26951;47.338;9.196;2023-04-28T00:24:58;9.70;64.70
41220;DHT22;26951;47.338;9.196;2023-04-28T00:27:42;9.80;64.60
41220;DHT22;26951;47.338;9.196;2023-04-28T00:30:26;9.80;64.10
41220;DHT22;26951;47.338;9.196;2023-04-28T00:33:10;9.80;64.40
41220;DHT22;26951;47.338;9.196;2023-04-28T00:35:58;9.80;64.40
41220;DHT22;26951;47.338;9.196;2023-04-28T00:38:43;9.80;64.70
41220;DHT22;26951;47.338;9.196;2023-04-28T00:41:27;9.80;65.30
41220;DHT22;26951;47.338;9.196;2023-04-28T00:44:11;9.90;65.40
41220;DHT22;26951;47.338;9.196;2023-04-28T00:46:56;9.90;65.10
41220;DHT22;26951;47.338;9.196;2023-04-28T00:49:41;9.90;65.20
41220;DHT22;26951;47.338;9.196;2023-04-28T00:52:26;9.80;65.30
41220;DHT22;26951;47.338;9.196;2023-04-28T00:55:14;9.80;65.30
41220;DHT22;26951;47.338;9.196;2023-04-28T00:57:58;9.80;64.80
41220;DHT22;26951;47.338;9.196;2023-04-28T01:04:24;9.90;64.40
41220;DHT22;26951;47.338;9.196;2023-04-28T01:07:09;9.90;65.00
41220;DHT22;26951;47.338;9.196;2023-04-28T01:09:55;9.90;64.70
41220;DHT22;26951;47.338;9.196;2023-04-28T01:12:39;9.90;64.70
41220;DHT22;26951;47.338;9.196;2023-04-28T01:15:23;9.90;64.40
41220;DHT22;26951;47.338;9.196;2023-04-28T01:18:07;10.00;63.10
41220;DHT22;26951;47.338;9.196;2023-04-28T01:20:51;10.00;63.50
41220;DHT22;26951;47.338;9.196;2023-04-28T01:23:35;9.90;64.70
41220;DHT22;26951;47.338;9.196;2023-04-28T01:26:19;9.90;64.50
41220;DHT22;26951;47.338;9.196;2023-04-28T01:29:04;9.90;64.00
41220;DHT22;26951;47.338;9.196;2023-04-28T01:31:48;9.90;64.00
41220;DHT22;26951;47.338;9.196;2023-04-28T01:34:32;9.90;64.70
41220;DHT22;26951;47.338;9.196;2023-04-28T01:37:17;9.90;65.20
41220;DHT22;26951;47.338;9.196;2023-04-28T01:40:01;9.90;64.80
41220;DHT22;26951;47.338;9.196;2023-04-28T01:42:45;9.90;64.70
41220;DHT22;26951;47.338;9.196;2023-04-28T01:45:29;9.90;65.00
41220;DHT22;26951;47.338;9.196;2023-04-28T01:48:13;9.90;64.90
41220;DHT22;26951;47.338;9.196;2023-04-28T01:50:57;9.90;64.90
41220;DHT22;26951;47.338;9.196;2023-04-28T01:53:41;9.90;64.70
41220;DHT22;26951;47.338;9.196;2023-04-28T01:56:25;9.90;64.20
41220;DHT22;26951;47.338;9.196;2023-04-28T01:59:09;10.00;64.60
41220;DHT22;26951;47.338;9.196;2023-04-28T02:01:53;10.00;64.60
41220;DHT22;26951;47.338;9.196;2023-04-28T02:04:38;9.90;66.10
41220;DHT22;26951;47.338;9.196;2023-04-28T02:07:22;9.90;65.70
41220;DHT22;26951;47.338;9.196;2023-04-28T02:10:08;9.90;65.70
41220;DHT22;26951;47.338;9.196;2023-04-28T02:12:52;9.90;64.90
41220;DHT22;26951;47.338;9.196;2023-04-28T02:15:40;10.00;64.20
41220;DHT22;26951;47.338;9.196;2023-04-28T02:18:25;10.00;65.20
41220;DHT22;26951;47.338;9.196;2023-04-28T02:21:11;10.00;66.60
41220;DHT22;26951;47.338;9.196;2023-04-28T02:23:55;10.00;66.70
41220;DHT22;26951;47.338;9.196;2023-04-28T02:26:39;10.00;66.40
41220;DHT22;26951;47.338;9.196;2023-04-28T02:29:25;10.00;67.60
41220;DHT22;26951;47.338;9.196;2023-04-28T02:32:09;10.00;66.20
41220;DHT22;26951;47.338;9.196;2023-04-28T02:34:54;10.10;65.70
41220;DHT22;26951;47.338;9.196;2023-04-28T02:37:38;10.10;65.40
41220;DHT22;26951;47.338;9.196;2023-04-28T02:40:22;10.10;65.20
41220;DHT22;26951;47.338;9.196;2023-04-28T02:43:06;10.20;70.10
41220;DHT22;26951;47.338;9.196;2023-04-28T02:45:51;10.20;70.00
41220;DHT22;26951;47.338;9.196;2023-04-28T02:48:35;10.20;69.20
41220;DHT22;26951;47.338;9.196;2023-04-28T02:51:20;10.20;69.30
41220;DHT22;26951;47.338;9.196;2023-04-28T02:54:05;10.10;69.50
41220;DHT22;26951;47.338;9.196;2023-04-28T02:56:49;10.10;70.20
41220;DHT22;26951;47.338;9.196;2023-04-28T02:59:33;10.10;70.70
41220;DHT22;26951;47.338;9.196;2023-04-28T03:02:18;10.10;70.30
41220;DHT22;26951;47.338;9.196;2023-04-28T03:05:04;10.10;70.70
41220;DHT22;26951;47.338;9.196;2023-04-28T03:07:48;10.10;70.80
41220;DHT22;26951;47.338;9.196;2023-04-28T03:10:32;10.10;70.60
41220;DHT22;26951;47.338;9.196;2023-04-28T03:13:17;10.10;71.10
41220;DHT22;26951;47.338;9.196;2023-04-28T03:16:01;10.10;70.80
41220;DHT22;26951;47.338;9.196;2023-04-28T03:18:45;10.10;70.60
41220;DHT22;26951;47.338;9.196;2023-04-28T03:21:29;10.10;71.10
41220;DHT22;26951;47.338;9.196;2023-04-28T03:24:13;10.10;71.60
41220;DHT22;26951;47.338;9.196;2023-04-28T03:26:57;10.10;72.00
41220;DHT22;26951;47.338;9.196;2023-04-28T03:29:41;10.10;71.30
41220;DHT22;26951;47.338;9.196;2023-04-28T03:32:25;10.10;71.50
41220;DHT22;26951;47.338;9.196;2023-04-28T03:35:09;10.10;72.90
41220;DHT22;26951;47.338;9.196;2023-04-28T03:37:54;10.10;72.50
41220;DHT22;26951;47.338;9.196;2023-04-28T03:40:38;10.10;72.80
41220;DHT22;26951;47.338;9.196;2023-04-28T03:43:22;10.10;72.80
41220;DHT22;26951;47.338;9.196;2023-04-28T03:46:06;10.10;72.50
41220;DHT22;26951;47.338;9.196;2023-04-28T03:48:50;10.10;72.60
41220;DHT22;26951;47.338;9.196;2023-04-28T03:51:34;10.10;72.60
41220;DHT22;26951;47.338;9.196;2023-04-28T03:54:18;10.10;73.50
41220;DHT22;26951;47.338;9.196;2023-04-28T03:57:02;10.10;73.60
41220;DHT22;26951;47.338;9.196;2023-04-28T03:59:47;10.00;74.70
41220;DHT22;26951;47.338;9.196;2023-04-28T04:02:31;10.00;74.40
41220;DHT22;26951;47.338;9.196;2023-04-28T04:05:15;10.00;74.60
41220;DHT22;26951;47.338;9.196;2023-04-28T04:07:59;10.00;74.30
41220;DHT22;26951;47.338;9.196;2023-04-28T04:10:44;10.00;74.00
41220;DHT22;26951;47.338;9.196;2023-04-28T04:13:29;10.00;74.20
41220;DHT22;26951;47.338;9.196;2023-04-28T04:16:13;10.00;74.70
41220;DHT22;26951;47.338;9.196;2023-04-28T04:18:58;10.00;74.70
41220;DHT22;26951;47.338;9.196;2023-04-28T04:21:42;10.00;75.10
41220;DHT22;26951;47.338;9.196;2023-04-28T04:24:26;10.00;75.40
41220;DHT22;26951;47.338;9.196;2023-04-28T04:27:11;10.00;74.90
41220;DHT22;26951;47.338;9.196;2023-04-28T04:29:55;10.00;75.20
41220;DHT22;26951;47.338;9.196;2023-04-28T04:32:39;10.00;75.20
41220;DHT22;26951;47.338;9.196;2023-04-28T04:35:23;10.00;74.70
41220;DHT22;26951;47.338;9.196;2023-04-28T04:38:07;10.00;74.50
41220;DHT22;26951;47.338;9.196;2023-04-28T04:40:51;10.00;74.60
41220;DHT22;26951;47.338;9.196;2023-04-28T04:43:35;10.00;74.70
41220;DHT22;26951;47.338;9.196;2023-04-28T04:46:19;10.00;74.70
41220;DHT22;26951;47.338;9.196;2023-04-28T04:49:04;10.00;74.20
41220;DHT22;26951;47.338;9.196;2023-04-28T04:51:48;10.00;74.50
41220;DHT22;26951;47.338;9.196;2023-04-28T04:54:33;10.00;74.30
41220;DHT22;26951;47.338;9.196;2023-04-28T04:57:17;10.00;74.30
41220;DHT22;26951;47.338;9.196;2023-04-28T05:00:01;10.10;74.80
41220;DHT22;26951;47.338;9.196;2023-04-28T05:02:45;10.00;74.70
41220;DHT22;26951;47.338;9.196;2023-04-28T05:05:29;10.00;74.70
41220;DHT22;26951;47.338;9.196;2023-04-28T05:08:14;10.00;74.70
41220;DHT22;26951;47.338;9.196;2023-04-28T05:10:58;10.00;76.20
41220;DHT22;26951;47.338;9.196;2023-04-28T05:13:42;10.00;76.40
41220;DHT22;26951;47.338;9.196;2023-04-28T05:16:27;10.00;76.30
41220;DHT22;26951;47.338;9.196;2023-04-28T05:19:11;10.00;75.90
41220;DHT22;26951;47.338;9.196;2023-04-28T05:21:55;10.00;75.60
41220;DHT22;26951;47.338;9.196;2023-04-28T05:24:39;10.00;75.50
41220;DHT22;26951;47.338;9.196;2023-04-28T05:27:24;10.00;75.50
41220;DHT22;26951;47.338;9.196;2023-04-28T05:30:09;10.00;75.50
41220;DHT22;26951;47.338;9.196;2023-04-28T05:32:53;10.00;75.40
41220;DHT22;26951;47.338;9.196;2023-04-28T05:35:37;10.00;75.90
41220;DHT22;26951;47.338;9.196;2023-04-28T05:38:22;10.00;76.30
41220;DHT22;26951;47.338;9.196;2023-04-28T05:41:06;10.00;76.80
41220;DHT22;26951;47.338;9.196;2023-04-28T05:43:51;10.00;76.50
41220;DHT22;26951;47.338;9.196;2023-04-28T05:46:35;10.00;76.50
41220;DHT22;26951;47.338;9.196;2023-04-28T05:49:20;10.00;76.40
41220;DHT22;26951;47.338;9.196;2023-04-28T05:52:04;10.00;76.00
41220;DHT22;26951;47.338;9.196;2023-04-28T05:54:48;10.00;75.50
41220;DHT22;26951;47.338;9.196;2023-04-28T05:57:32;10.00;75.70
41220;DHT22;26951;47.338;9.196;2023-04-28T06:00:17;10.00;75.90
41220;DHT22;26951;47.338;9.196;2023-04-28T06:03:01;10.00;75.90
41220;DHT22;26951;47.338;9.196;2023-04-28T06:05:46;10.00;76.00
41220;DHT22;26951;47.338;9.196;2023-04-28T06:08:29;10.00;76.60
41220;DHT22;26951;47.338;9.196;2023-04-28T06:11:14;10.00;76.60
41220;DHT22;26951;47.338;9.196;2023-04-28T06:13:58;10.00;76.70
41220;DHT22;26951;47.338;9.196;2023-04-28T06:16:42;10.00;76.50
41220;DHT22;26951;47.338;9.196;2023-04-28T06:19:26;10.00;76.10
41220;DHT22;26951;47.338;9.196;2023-04-28T06:22:10;10.10;75.90
41220;DHT22;26951;47.338;9.196;2023-04-28T06:24:54;10.10;75.50
41220;DHT22;26951;47.338;9.196;2023-04-28T06:27:38;10.10;75.20
41220;DHT22;26951;47.338;9.196;2023-04-28T06:30:23;10.10;75.30
41220;DHT22;26951;47.338;9.196;2023-04-28T06:33:07;10.10;75.60
41220;DHT22;26951;47.338;9.196;2023-04-28T06:35:52;10.10;75.90
41220;DHT22;26951;47.338;9.196;2023-04-28T06:38:36;10.10;75.80
41220;DHT22;26951;47.338;9.196;2023-04-28T06:41:20;10.10;75.90
41220;DHT22;26951;47.338;9.196;2023-04-28T06:44:05;10.10;76.10
41220;DHT22;26951;47.338;9.196;2023-04-28T06:46:49;10.10;76.20
41220;DHT22;26951;47.338;9.196;2023-04-28T06:49:33;10.10;76.60
41220;DHT22;26951;47.338;9.196;2023-04-28T06:52:17;10.10;76.30
41220;DHT22;26951;47.338;9.196;2023-04-28T06:55:01;10.10;76.30
41220;DHT22;26951;47.338;9.196;2023-04-28T06:57:45;10.10;77.30
41220;DHT22;26951;47.338;9.196;2023-04-28T07:00:29;10.10;77.50
41220;DHT22;26951;47.338;9.196;2023-04-28T07:03:14;10.10;77.60
41220;DHT22;26951;47.338;9.196;2023-04-28T07:05:58;10.10;77.30
41220;DHT22;26951;47.338;9.196;2023-04-28T07:08:42;10.10;77.20
41220;DHT22;26951;47.338;9.196;2023-04-28T07:11:26;10.10;78.20
41220;DHT22;26951;47.338;9.196;2023-04-28T07:14:10;10.10;78.20
41220;DHT22;26951;47.338;9.196;2023-04-28T07:16:54;10.20;78.20
41220;DHT22;26951;47.338;9.196;2023-04-28T07:19:39;10.20;78.50
41220;DHT22;26951;47.338;9.196;2023-04-28T07:22:23;10.20;78.50
41220;DHT22;26951;47.338;9.196;2023-04-28T07:25:08;10.20;78.20
41220;DHT22;26951;47.338;9.196;2023-04-28T07:27:52;10.20;77.70
41220;DHT22;26951;47.338;9.196;2023-04-28T07:30:37;10.20;77.20
41220;DHT22;26951;47.338;9.196;2023-04-28T07:33:21;10.20;77.20
41220;DHT22;26951;47.338;9.196;2023-04-28T07:36:05;10.20;78.10
41220;DHT22;26951;47.338;9.196;2023-04-28T07:38:50;10.30;78.40
41220;DHT22;26951;47.338;9.196;2023-04-28T07:41:37;10.30;79.40
41220;DHT22;26951;47.338;9.196;2023-04-28T07:44:22;10.30;79.90
41220;DHT22;26951;47.338;9.196;2023-04-28T07:47:05;10.30;80.50
41220;DHT22;26951;47.338;9.196;2023-04-28T07:49:49;10.40;81.20
41220;DHT22;26951;47.338;9.196;2023-04-28T07:52:34;10.40;82.10
41220;DHT22;26951;47.338;9.196;2023-04-28T07:55:18;10.40;82.70
41220;DHT22;26951;47.338;9.196;2023-04-28T07:58:02;10.50;83.50
41220;DHT22;26951;47.338;9.196;2023-04-28T08:00:47;10.50;84.40
41220;DHT22;26951;47.338;9.196;2023-04-28T08:03:31;10.60;85.50
41220;DHT22;26951;47.338;9.196;2023-04-28T08:06:15;10.70;85.50
41220;DHT22;26951;47.338;9.196;2023-04-28T08:08:59;10.70;85.40
41220;DHT22;26951;47.338;9.196;2023-04-28T08:11:45;10.80;85.40
41220;DHT22;26951;47.338;9.196;2023-04-28T08:14:29;10.80;84.70
41220;DHT22;26951;47.338;9.196;2023-04-28T08:17:14;10.90;84.00
41220;DHT22;26951;47.338;9.196;2023-04-28T08:19:58;10.90;82.90
41220;DHT22;26951;47.338;9.196;2023-04-28T08:22:42;10.90;80.50
41220;DHT22;26951;47.338;9.196;2023-04-28T08:25:26;11.00;80.30
41220;DHT22;26951;47.338;9.196;2023-04-28T08:28:10;11.00;80.00
41220;DHT22;26951;47.338;9.196;2023-04-28T08:30:54;11.00;80.10
41220;DHT22;26951;47.338;9.196;2023-04-28T08:33:39;11.00;80.30
41220;DHT22;26951;47.338;9.196;2023-04-28T08:36:27;11.00;80.30
41220;DHT22;26951;47.338;9.196;2023-04-28T08:39:15;11.00;80.30
41220;DHT22;26951;47.338;9.196;2023-04-28T08:42:02;11.10;79.80
41220;DHT22;26951;47.338;9.196;2023-04-28T08:44:48;11.10;79.60
41220;DHT22;26951;47.338;9.196;2023-04-28T08:47:36;11.10;79.50
41220;DHT22;26951;47.338;9.196;2023-04-28T08:50:21;11.10;78.90
41220;DHT22;26951;47.338;9.196;2023-04-28T08:53:06;11.10;78.40
41220;DHT22;26951;47.338;9.196;2023-04-28T08:55:53;11.10;78.70
41220;DHT22;26951;47.338;9.196;2023-04-28T08:58:38;11.10;78.70
41220;DHT22;26951;47.338;9.196;2023-04-28T09:01:23;11.10;78.20
41220;DHT22;26951;47.338;9.196;2023-04-28T09:04:07;11.00;78.00
41220;DHT22;26951;47.338;9.196;2023-04-28T09:06:54;11.00;78.30
41220;DHT22;26951;47.338;9.196;2023-04-28T09:09:38;11.10;78.70
41220;DHT22;26951;47.338;9.196;2023-04-28T09:12:23;11.10;78.90
41220;DHT22;26951;47.338;9.196;2023-04-28T09:15:31;11.10;79.10
41220;DHT22;26951;47.338;9.196;2023-04-28T09:18:17;11.10;79.10
41220;DHT22;26951;47.338;9.196;2023-04-28T09:21:05;11.10;79.10
41220;DHT22;26951;47.338;9.196;2023-04-28T09:23:50;11.10;79.50
41220;DHT22;26951;47.338;9.196;2023-04-28T09:26:47;11.10;80.20
41220;DHT22;26951;47.338;9.196;2023-04-28T09:29:33;11.10;80.20
41220;DHT22;26951;47.338;9.196;2023-04-28T09:32:19;11.10;79.70
41220;DHT22;26951;47.338;9.196;2023-04-28T09:35:04;11.20;80.50
41220;DHT22;26951;47.338;9.196;2023-04-28T09:37:57;11.20;81.00
41220;DHT22;26951;47.338;9.196;2023-04-28T09:41:01;11.20;81.20
41220;DHT22;26951;47.338;9.196;2023-04-28T09:43:46;11.20;80.50
41220;DHT22;26951;47.338;9.196;2023-04-28T09:46:30;11.20;80.80
41220;DHT22;26951;47.338;9.196;2023-04-28T09:49:15;11.20;81.00
41220;DHT22;26951;47.338;9.196;2023-04-28T09:52:12;11.30;81.30
41220;DHT22;26951;47.338;9.196;2023-04-28T09:54:57;11.30;82.00
41220;DHT22;26951;47.338;9.196;2023-04-28T09:57:43;11.40;82.10
41220;DHT22;26951;47.338;9.196;2023-04-28T10:00:29;11.40;82.50
41220;DHT22;26951;47.338;9.196;2023-04-28T10:03:16;11.40;84.40
41220;DHT22;26951;47.338;9.196;2023-04-28T10:06:01;11.50;83.90
41220;DHT22;26951;47.338;9.196;2023-04-28T10:08:45;11.50;83.80
41220;DHT22;26951;47.338;9.196;2023-04-28T10:11:32;11.60;84.40
41220;DHT22;26951;47.338;9.196;2023-04-28T10:14:17;11.60;84.70
41220;DHT22;26951;47.338;9.196;2023-04-28T10:17:02;11.60;85.20
41220;DHT22;26951;47.338;9.196;2023-04-28T10:19:48;11.70;85.10
41220;DHT22;26951;47.338;9.196;2023-04-28T10:23:24;11.70;85.20
41220;DHT22;26951;47.338;9.196;2023-04-28T10:26:14;11.80;83.50
41220;DHT22;26951;47.338;9.196;2023-04-28T10:29:01;11.80;82.60
41220;DHT22;26951;47.338;9.196;2023-04-28T10:32:14;11.80;82.50
41220;DHT22;26951;47.338;9.196;2023-04-28T10:38:06;11.80;81.10
41220;DHT22;26951;47.338;9.196;2023-04-28T10:40:53;11.80;81.10
41220;DHT22;26951;47.338;9.196;2023-04-28T10:43:38;11.80;81.70
41220;DHT22;26951;47.338;9.196;2023-04-28T10:46:23;11.70;82.30
41220;DHT22;26951;47.338;9.196;2023-04-28T10:49:07;11.70;82.10
41220;DHT22;26951;47.338;9.196;2023-04-28T10:51:51;11.70;82.60
41220;DHT22;26951;47.338;9.196;2023-04-28T10:54:35;11.70;82.90
41220;DHT22;26951;47.338;9.196;2023-04-28T10:57:20;11.70;82.60
41220;DHT22;26951;47.338;9.196;2023-04-28T11:00:27;11.80;83.30
41220;DHT22;26951;47.338;9.196;2023-04-28T11:03:50;11.80;83.10
41220;DHT22;26951;47.338;9.196;2023-04-28T11:06:37;11.80;83.30
41220;DHT22;26951;47.338;9.196;2023-04-28T11:12:15;11.80;84.40
41220;DHT22;26951;47.338;9.196;2023-04-28T11:15:10;11.80;84.90
41220;DHT22;26951;47.338;9.196;2023-04-28T11:17:56;11.80;84.30
41220;DHT22;26951;47.338;9.196;2023-04-28T11:20:43;11.80;84.20
41220;DHT22;26951;47.338;9.196;2023-04-28T11:23:28;11.90;84.60
41220;DHT22;26951;47.338;9.196;2023-04-28T11:26:13;11.90;85.10
41220;DHT22;26951;47.338;9.196;2023-04-28T11:28:57;11.90;85.50
41220;DHT22;26951;47.338;9.196;2023-04-28T11:31:50;11.90;85.50
41220;DHT22;26951;47.338;9.196;2023-04-28T11:34:35;12.00;85.60
41220;DHT22;26951;47.338;9.196;2023-04-28T11:37:20;12.00;85.70
41220;DHT22;26951;47.338;9.196;2023-04-28T11:40:11;12.00;85.70
41220;DHT22;26951;47.338;9.196;2023-04-28T11:42:56;12.00;86.20
41220;DHT22;26951;47.338;9.196;2023-04-28T11:45:44;12.00;86.80
41220;DHT22;26951;47.338;9.196;2023-04-28T11:48:28;12.00;86.80
41220;DHT22;26951;47.338;9.196;2023-04-28T11:51:32;12.10;86.60
41220;DHT22;26951;47.338;9.196;2023-04-28T11:54:24;12.20;87.00
41220;DHT22;26951;47.338;9.196;2023-04-28T11:57:19;12.20;86.80
41220;DHT22;26951;47.338;9.196;2023-04-28T12:00:14;12.30;85.50
41220;DHT22;26951;47.338;9.196;2023-04-28T12:03:08;12.30;86.30
41220;DHT22;26951;47.338;9.196;2023-04-28T12:05:51;12.30;87.10
41220;DHT22;26951;47.338;9.196;2023-04-28T12:08:36;12.30;87.40
41220;DHT22;26951;47.338;9.196;2023-04-28T12:11:20;12.30;86.60
41220;DHT22;26951;47.338;9.196;2023-04-28T12:14:05;12.30;86.80
41220;DHT22;26951;47.338;9.196;2023-04-28T12:16:50;12.30;86.40
41220;DHT22;26951;47.338;9.196;2023-04-28T12:19:44;12.30;86.00
41220;DHT22;26951;47.338;9.196;2023-04-28T12:25:26;12.30;85.90
41220;DHT22;26951;47.338;9.196;2023-04-28T12:28:10;12.30;85.70
41220;DHT22;26951;47.338;9.196;2023-04-28T12:31:05;12.30;85.90
41220;DHT22;26951;47.338;9.196;2023-04-28T12:33:49;12.40;86.30
41220;DHT22;26951;47.338;9.196;2023-04-28T12:36:33;12.40;86.50
41220;DHT22;26951;47.338;9.196;2023-04-28T12:39:17;12.40;86.60
41220;DHT22;26951;47.338;9.196;2023-04-28T12:42:02;12.40;86.60
41220;DHT22;26951;47.338;9.196;2023-04-28T12:44:47;12.40;86.30
41220;DHT22;26951;47.338;9.196;2023-04-28T12:47:31;12.50;86.10
41220;DHT22;26951;47.338;9.196;2023-04-28T12:50:15;12.50;86.40
41220;DHT22;26951;47.338;9.196;2023-04-28T12:52:59;12.50;86.00
41220;DHT22;26951;47.338;9.196;2023-04-28T12:55:44;12.50;86.10
41220;DHT22;26951;47.338;9.196;2023-04-28T12:58:28;12.60;87.00
41220;DHT22;26951;47.338;9.196;2023-04-28T13:01:13;12.60;86.80
41220;DHT22;26951;47.338;9.196;2023-04-28T13:03:58;12.60;87.10
41220;DHT22;26951;47.338;9.196;2023-04-28T13:06:42;12.70;86.80
41220;DHT22;26951;47.338;9.196;2023-04-28T13:09:27;12.70;86.70
41220;DHT22;26951;47.338;9.196;2023-04-28T13:12:12;12.80;86.80
41220;DHT22;26951;47.338;9.196;2023-04-28T13:14:57;12.70;87.70
41220;DHT22;26951;47.338;9.196;2023-04-28T13:17:41;12.80;86.40
41220;DHT22;26951;47.338;9.196;2023-04-28T13:20:25;12.80;86.50
41220;DHT22;26951;47.338;9.196;2023-04-28T13:23:09;12.80;86.60
41220;DHT22;26951;47.338;9.196;2023-04-28T13:25:55;12.80;86.70
41220;DHT22;26951;47.338;9.196;2023-04-28T13:28:40;12.80;87.10
41220;DHT22;26951;47.338;9.196;2023-04-28T13:31:24;12.80;86.90
41220;DHT22;26951;47.338;9.196;2023-04-28T13:34:08;12.90;86.80
41220;DHT22;26951;47.338;9.196;2023-04-28T13:36:58;12.90;87.10
41220;DHT22;26951;47.338;9.196;2023-04-28T13:39:42;12.90;86.80
41220;DHT22;26951;47.338;9.196;2023-04-28T13:42:26;12.90;86.80
41220;DHT22;26951;47.338;9.196;2023-04-28T13:45:11;12.90;87.30
41220;DHT22;26951;47.338;9.196;2023-04-28T13:47:55;13.00;88.00
41220;DHT22;26951;47.338;9.196;2023-04-28T13:50:39;13.00;87.60
41220;DHT22;26951;47.338;9.196;2023-04-28T13:53:23;13.00;88.00
41220;DHT22;26951;47.338;9.196;2023-04-28T13:56:07;13.00;88.40
41220;DHT22;26951;47.338;9.196;2023-04-28T13:58:52;13.10;88.50
41220;DHT22;26951;47.338;9.196;2023-04-28T14:01:36;13.10;88.20
41220;DHT22;26951;47.338;9.196;2023-04-28T14:04:20;13.20;88.20
41220;DHT22;26951;47.338;9.196;2023-04-28T14:07:07;13.20;88.30
41220;DHT22;26951;47.338;9.196;2023-04-28T14:09:51;13.20;89.40
41220;DHT22;26951;47.338;9.196;2023-04-28T14:12:35;13.30;90.00
41220;DHT22;26951;47.338;9.196;2023-04-28T14:15:21;13.30;89.80
41220;DHT22;26951;47.338;9.196;2023-04-28T14:18:05;13.40;89.90
41220;DHT22;26951;47.338;9.196;2023-04-28T14:20:49;13.40;89.60
41220;DHT22;26951;47.338;9.196;2023-04-28T14:23:34;13.50;89.20
41220;DHT22;26951;47.338;9.196;2023-04-28T14:26:21;13.50;89.10
41220;DHT22;26951;47.338;9.196;2023-04-28T14:29:07;13.50;88.40
41220;DHT22;26951;47.338;9.196;2023-04-28T14:31:51;13.60;88.10
41220;DHT22;26951;47.338;9.196;2023-04-28T14:34:36;13.50;87.30
41220;DHT22;26951;47.338;9.196;2023-04-28T14:37:20;13.50;87.30
41220;DHT22;26951;47.338;9.196;2023-04-28T14:40:05;13.50;87.10
41220;DHT22;26951;47.338;9.196;2023-04-28T14:42:49;13.50;86.70
41220;DHT22;26951;47.338;9.196;2023-04-28T14:45:35;13.60;86.20
41220;DHT22;26951;47.338;9.196;2023-04-28T14:48:20;13.50;85.30
41220;DHT22;26951;47.338;9.196;2023-04-28T14:51:04;13.50;85.50
41220;DHT22;26951;47.338;9.196;2023-04-28T14:53:49;13.50;85.00
41220;DHT22;26951;47.338;9.196;2023-04-28T14:56:33;13.60;85.20
41220;DHT22;26951;47.338;9.196;2023-04-28T14:59:18;13.60;85.50
41220;DHT22;26951;47.338;9.196;2023-04-28T15:02:02;13.50;85.10
41220;DHT22;26951;47.338;9.196;2023-04-28T15:04:47;13.60;85.60
41220;DHT22;26951;47.338;9.196;2023-04-28T15:07:31;13.60;86.10
41220;DHT22;26951;47.338;9.196;2023-04-28T15:10:15;13.60;86.30
41220;DHT22;26951;47.338;9.196;2023-04-28T15:13:00;13.60;86.50
41220;DHT22;26951;47.338;9.196;2023-04-28T15:15:44;13.60;86.40
41220;DHT22;26951;47.338;9.196;2023-04-28T15:18:29;13.60;85.80
41220;DHT22;26951;47.338;9.196;2023-04-28T15:21:13;13.60;85.70
41220;DHT22;26951;47.338;9.196;2023-04-28T15:23:58;13.60;85.70
41220;DHT22;26951;47.338;9.196;2023-04-28T15:26:45;13.70;85.70
41220;DHT22;26951;47.338;9.196;2023-04-28T15:29:29;13.70;85.60
41220;DHT22;26951;47.338;9.196;2023-04-28T15:32:13;13.70;85.50
41220;DHT22;26951;47.338;9.196;2023-04-28T15:34:57;13.70;85.10
41220;DHT22;26951;47.338;9.196;2023-04-28T15:37:45;13.70;84.60
41220;DHT22;26951;47.338;9.196;2023-04-28T15:40:34;13.70;84.40
41220;DHT22;26951;47.338;9.196;2023-04-28T15:43:19;13.70;84.20
41220;DHT22;26951;47.338;9.196;2023-04-28T15:46:04;13.70;83.80
41220;DHT22;26951;47.338;9.196;2023-04-28T15:48:51;13.70;83.60
41220;DHT22;26951;47.338;9.196;2023-04-28T15:51:36;13.70;84.20
41220;DHT22;26951;47.338;9.196;2023-04-28T15:54:20;13.70;83.60
41220;DHT22;26951;47.338;9.196;2023-04-28T15:57:04;13.70;83.60
41220;DHT22;26951;47.338;9.196;2023-04-28T15:59:49;13.70;83.50
41220;DHT22;26951;47.338;9.196;2023-04-28T16:02:36;13.60;83.50
41220;DHT22;26951;47.338;9.196;2023-04-28T16:05:20;13.60;83.60
41220;DHT22;26951;47.338;9.196;2023-04-28T16:08:04;13.60;83.70
41220;DHT22;26951;47.338;9.196;2023-04-28T16:10:49;13.60;83.90
41220;DHT22;26951;47.338;9.196;2023-04-28T16:13:33;13.60;84.00
41220;DHT22;26951;47.338;9.196;2023-04-28T16:16:19;13.60;83.90
41220;DHT22;26951;47.338;9.196;2023-04-28T16:19:04;13.60;83.70
41220;DHT22;26951;47.338;9.196;2023-04-28T16:21:48;13.50;84.30
41220;DHT22;26951;47.338;9.196;2023-04-28T16:24:32;13.50;83.30
41220;DHT22;26951;47.338;9.196;2023-04-28T16:27:17;13.50;83.30
41220;DHT22;26951;47.338;9.196;2023-04-28T16:30:01;13.50;83.50
41220;DHT22;26951;47.338;9.196;2023-04-28T16:32:46;13.50;83.50
41220;DHT22;26951;47.338;9.196;2023-04-28T16:35:30;13.50;83.50
41220;DHT22;26951;47.338;9.196;2023-04-28T16:38:14;13.50;83.50
41220;DHT22;26951;47.338;9.196;2023-04-28T16:40:59;13.50;84.00
41220;DHT22;26951;47.338;9.196;2023-04-28T16:43:44;13.50;84.30
41220;DHT22;26951;47.338;9.196;2023-04-28T16:46:28;13.50;84.20
41220;DHT22;26951;47.338;9.196;2023-04-28T16:49:12;13.50;84.40
41220;DHT22;26951;47.338;9.196;2023-04-28T16:52:00;13.50;85.00
41220;DHT22;26951;47.338;9.196;2023-04-28T16:54:45;13.40;85.20
41220;DHT22;26951;47.338;9.196;2023-04-28T16:57:29;13.40;84.70
41220;DHT22;26951;47.338;9.196;2023-04-28T17:00:13;13.40;84.20
41220;DHT22;26951;47.338;9.196;2023-04-28T17:02:58;13.40;84.00
41220;DHT22;26951;47.338;9.196;2023-04-28T17:05:42;13.40;83.80
41220;DHT22;26951;47.338;9.196;2023-04-28T17:08:26;13.40;83.90
41220;DHT22;26951;47.338;9.196;2023-04-28T17:11:15;13.30;84.10
41220;DHT22;26951;47.338;9.196;2023-04-28T17:14:00;13.30;84.30
41220;DHT22;26951;47.338;9.196;2023-04-28T17:16:44;13.30;84.80
41220;DHT22;26951;47.338;9.196;2023-04-28T17:19:28;13.20;84.50
41220;DHT22;26951;47.338;9.196;2023-04-28T17:22:12;13.20;84.80
41220;DHT22;26951;47.338;9.196;2023-04-28T17:24:57;13.20;85.60
41220;DHT22;26951;47.338;9.196;2023-04-28T17:27:41;13.20;85.70
41220;DHT22;26951;47.338;9.196;2023-04-28T17:30:25;13.20;85.80
41220;DHT22;26951;47.338;9.196;2023-04-28T17:33:09;13.10;86.20
41220;DHT22;26951;47.338;9.196;2023-04-28T17:35:53;13.10;85.70
41220;DHT22;26951;47.338;9.196;2023-04-28T17:38:38;13.10;85.20